sensor_id;sensor_type;location;lat;lon;timestamp;P1;durP1;ratioP1;P2;durP2;ratioP2
46729;SDS011;32476;50.002;11.854;2022-09-09T00:02:37;4.30;;;1.77;;
46729;SDS011;32476;50.002;11.854;2022-09-09T00:04:55;9.20;;;1.83;;
46729;SDS011;32476;50.002;11.854;2022-09-09T00:07:51;4.13;;;1.60;;
46729;SDS011;32476;50.002;11.854;2022-09-09T00:16:00;5.47;;;1.43;;
46729;SDS011;32476;50.002;11.854;2022-09-09T00:21:33;5.43;;;1.67;;
46729;SDS011;32476;50.002;11.854;2022-09-09T00:24:46;5.33;;;1.40;;
46729;SDS011;32476;50.002;11.854;2022-09-09T00:27:19;2.27;;;1.20;;
46729;SDS011;32476;50.002;11.854;2022-09-09T00:29:55;2.43;;;1.10;;
46729;SDS011;32476;50.002;11.854;2022-09-09T00:32:25;5.57;;;1.43;;
46729;SDS011;32476;50.002;11.854;2022-09-09T00:35:02;5.17;;;1.30;;
46729;SDS011;32476;50.002;11.854;2022-09-09T00:37:44;4.23;;;1.50;;
46729;SDS011;32476;50.002;11.854;2022-09-09T00:40:23;5.60;;;1.30;;
46729;SDS011;32476;50.002;11.854;2022-09-09T00:43:31;1.30;;;1.10;;
46729;SDS011;32476;50.002;11.854;2022-09-09T00:55:07;6.57;;;1.40;;
46729;SDS011;32476;50.002;11.854;2022-09-09T00:57:52;3.93;;;1.27;;
46729;SDS011;32476;50.002;11.854;2022-09-09T01:00:23;8.63;;;1.60;;
46729;SDS011;32476;50.002;11.854;2022-09-09T01:06:10;10.37;;;1.47;;
46729;SDS011;32476;50.002;11.854;2022-09-09T01:12:01;6.07;;;1.30;;
46729;SDS011;32476;50.002;11.854;2022-09-09T01:15:24;5.60;;;1.80;;
46729;SDS011;32476;50.002;11.854;2022-09-09T01:17:52;17.83;;;1.97;;
46729;SDS011;32476;50.002;11.854;2022-09-09T01:26:47;7.63;;;1.77;;
46729;SDS011;32476;50.002;11.854;2022-09-09T01:29:17;4.10;;;1.30;;
46729;SDS011;32476;50.002;11.854;2022-09-09T01:31:55;2.43;;;1.17;;
46729;SDS011;32476;50.002;11.854;2022-09-09T01:34:28;5.47;;;1.43;;
46729;SDS011;32476;50.002;11.854;2022-09-09T01:37:02;6.43;;;1.40;;
46729;SDS011;32476;50.002;11.854;2022-09-09T01:39:37;8.67;;;1.57;;
46729;SDS011;32476;50.002;11.854;2022-09-09T01:42:08;2.63;;;1.50;;
46729;SDS011;32476;50.002;11.854;2022-09-09T01:44:37;5.40;;;1.50;;
46729;SDS011;32476;50.002;11.854;2022-09-09T01:47:03;4.17;;;1.20;;
46729;SDS011;32476;50.002;11.854;2022-09-09T01:49:32;6.50;;;1.33;;
46729;SDS011;32476;50.002;11.854;2022-09-09T01:51:58;5.03;;;1.50;;
46729;SDS011;32476;50.002;11.854;2022-09-09T01:54:26;6.83;;;1.40;;
46729;SDS011;32476;50.002;11.854;2022-09-09T02:02:44;2.60;;;1.20;;
46729;SDS011;32476;50.002;11.854;2022-09-09T02:05:36;8.43;;;1.27;;
46729;SDS011;32476;50.002;11.854;2022-09-09T02:08:11;6.10;;;2.17;;
46729;SDS011;32476;50.002;11.854;2022-09-09T02:10:50;4.50;;;1.57;;
46729;SDS011;32476;50.002;11.854;2022-09-09T02:13:35;3.10;;;1.30;;
46729;SDS011;32476;50.002;11.854;2022-09-09T02:16:07;15.60;;;1.47;;
46729;SDS011;32476;50.002;11.854;2022-09-09T02:21:43;9.13;;;1.37;;
46729;SDS011;32476;50.002;11.854;2022-09-09T02:24:12;3.90;;;1.50;;
46729;SDS011;32476;50.002;11.854;2022-09-09T02:26:41;6.00;;;2.03;;
46729;SDS011;32476;50.002;11.854;2022-09-09T02:29:13;1.83;;;1.00;;
46729;SDS011;32476;50.002;11.854;2022-09-09T02:31:44;6.90;;;1.50;;
46729;SDS011;32476;50.002;11.854;2022-09-09T02:34:14;3.30;;;1.20;;
46729;SDS011;32476;50.002;11.854;2022-09-09T02:36:44;3.17;;;1.17;;
46729;SDS011;32476;50.002;11.854;2022-09-09T02:39:14;18.13;;;2.17;;
46729;SDS011;32476;50.002;11.854;2022-09-09T02:41:40;3.73;;;1.27;;
46729;SDS011;32476;50.002;11.854;2022-09-09T02:44:14;5.53;;;1.40;;
46729;SDS011;32476;50.002;11.854;2022-09-09T02:49:43;2.97;;;1.30;;
46729;SDS011;32476;50.002;11.854;2022-09-09T02:52:26;4.67;;;1.50;;
46729;SDS011;32476;50.002;11.854;2022-09-09T02:55:13;4.13;;;1.17;;
46729;SDS011;32476;50.002;11.854;2022-09-09T02:57:51;7.00;;;1.50;;
46729;SDS011;32476;50.002;11.854;2022-09-09T03:00:25;6.13;;;1.40;;
46729;SDS011;32476;50.002;11.854;2022-09-09T03:02:54;3.13;;;1.40;;
46729;SDS011;32476;50.002;11.854;2022-09-09T03:05:20;4.07;;;1.50;;
46729;SDS011;32476;50.002;11.854;2022-09-09T03:07:46;7.23;;;1.30;;
46729;SDS011;32476;50.002;11.854;2022-09-09T03:10:14;4.07;;;1.37;;
46729;SDS011;32476;50.002;11.854;2022-09-09T03:12:40;2.77;;;1.27;;
46729;SDS011;32476;50.002;11.854;2022-09-09T03:15:06;6.30;;;1.73;;
46729;SDS011;32476;50.002;11.854;2022-09-09T03:17:35;3.00;;;1.23;;
46729;SDS011;32476;50.002;11.854;2022-09-09T03:20:04;4.20;;;1.67;;
46729;SDS011;32476;50.002;11.854;2022-09-09T03:22:31;3.83;;;1.33;;
46729;SDS011;32476;50.002;11.854;2022-09-09T03:24:59;4.33;;;1.60;;
46729;SDS011;32476;50.002;11.854;2022-09-09T03:27:25;4.87;;;1.50;;
46729;SDS011;32476;50.002;11.854;2022-09-09T03:29:51;5.03;;;2.10;;
46729;SDS011;32476;50.002;11.854;2022-09-09T03:32:18;1.43;;;1.27;;
46729;SDS011;32476;50.002;11.854;2022-09-09T03:34:47;6.70;;;1.70;;
46729;SDS011;32476;50.002;11.854;2022-09-09T03:37:19;7.10;;;1.40;;
46729;SDS011;32476;50.002;11.854;2022-09-09T03:39:45;6.13;;;1.30;;
46729;SDS011;32476;50.002;11.854;2022-09-09T03:42:14;5.47;;;1.30;;
46729;SDS011;32476;50.002;11.854;2022-09-09T03:44:48;3.50;;;1.40;;
46729;SDS011;32476;50.002;11.854;2022-09-09T03:47:17;3.33;;;2.00;;
46729;SDS011;32476;50.002;11.854;2022-09-09T03:49:48;5.53;;;1.80;;
46729;SDS011;32476;50.002;11.854;2022-09-09T03:52:14;13.20;;;1.97;;
46729;SDS011;32476;50.002;11.854;2022-09-09T03:54:41;5.37;;;1.60;;
46729;SDS011;32476;50.002;11.854;2022-09-09T03:57:09;5.20;;;1.47;;
46729;SDS011;32476;50.002;11.854;2022-09-09T03:59:35;3.90;;;1.73;;
46729;SDS011;32476;50.002;11.854;2022-09-09T04:02:02;3.50;;;1.60;;
46729;SDS011;32476;50.002;11.854;2022-09-09T04:04:29;6.80;;;1.97;;
46729;SDS011;32476;50.002;11.854;2022-09-09T04:06:55;4.03;;;1.83;;
46729;SDS011;32476;50.002;11.854;2022-09-09T04:09:21;3.77;;;1.53;;
46729;SDS011;32476;50.002;11.854;2022-09-09T04:11:49;3.13;;;1.90;;
46729;SDS011;32476;50.002;11.854;2022-09-09T04:14:15;12.07;;;2.00;;
46729;SDS011;32476;50.002;11.854;2022-09-09T04:16:41;2.30;;;1.70;;
46729;SDS011;32476;50.002;11.854;2022-09-09T04:19:11;2.97;;;1.57;;
46729;SDS011;32476;50.002;11.854;2022-09-09T04:21:39;4.63;;;2.10;;
46729;SDS011;32476;50.002;11.854;2022-09-09T04:24:06;6.00;;;1.70;;
46729;SDS011;32476;50.002;11.854;2022-09-09T04:26:35;5.43;;;1.53;;
46729;SDS011;32476;50.002;11.854;2022-09-09T04:29:02;3.80;;;1.50;;
46729;SDS011;32476;50.002;11.854;2022-09-09T04:31:29;5.73;;;1.60;;
46729;SDS011;32476;50.002;11.854;2022-09-09T04:33:57;5.17;;;1.70;;
46729;SDS011;32476;50.002;11.854;2022-09-09T04:36:23;4.07;;;1.87;;
46729;SDS011;32476;50.002;11.854;2022-09-09T04:38:49;5.37;;;2.20;;
46729;SDS011;32476;50.002;11.854;2022-09-09T04:41:17;9.40;;;1.73;;
46729;SDS011;32476;50.002;11.854;2022-09-09T04:43:43;7.90;;;1.93;;
46729;SDS011;32476;50.002;11.854;2022-09-09T04:46:09;9.57;;;2.23;;
46729;SDS011;32476;50.002;11.854;2022-09-09T04:48:37;4.07;;;2.10;;
46729;SDS011;32476;50.002;11.854;2022-09-09T04:51:04;5.77;;;2.00;;
46729;SDS011;32476;50.002;11.854;2022-09-09T04:53:34;5.27;;;1.77;;
46729;SDS011;32476;50.002;11.854;2022-09-09T04:56:11;17.60;;;1.90;;
46729;SDS011;32476;50.002;11.854;2022-09-09T04:58:40;4.70;;;1.50;;
46729;SDS011;32476;50.002;11.854;2022-09-09T05:01:10;5.77;;;1.83;;
46729;SDS011;32476;50.002;11.854;2022-09-09T05:03:55;4.80;;;2.10;;
46729;SDS011;32476;50.002;11.854;2022-09-09T05:06:22;7.93;;;2.30;;
46729;SDS011;32476;50.002;11.854;2022-09-09T05:08:49;8.27;;;2.53;;
46729;SDS011;32476;50.002;11.854;2022-09-09T05:11:22;7.53;;;3.00;;
46729;SDS011;32476;50.002;11.854;2022-09-09T05:13:53;9.40;;;4.90;;
46729;SDS011;32476;50.002;11.854;2022-09-09T05:16:20;4.63;;;2.20;;
46729;SDS011;32476;50.002;11.854;2022-09-09T05:18:47;5.43;;;2.77;;
46729;SDS011;32476;50.002;11.854;2022-09-09T05:21:17;12.07;;;3.40;;
46729;SDS011;32476;50.002;11.854;2022-09-09T05:23:45;16.47;;;7.83;;
46729;SDS011;32476;50.002;11.854;2022-09-09T05:26:12;10.27;;;6.93;;
46729;SDS011;32476;50.002;11.854;2022-09-09T05:28:43;9.37;;;5.93;;
46729;SDS011;32476;50.002;11.854;2022-09-09T05:31:09;4.50;;;2.90;;
46729;SDS011;32476;50.002;11.854;2022-09-09T05:33:38;15.27;;;4.27;;
46729;SDS011;32476;50.002;11.854;2022-09-09T05:36:10;8.50;;;6.93;;
46729;SDS011;32476;50.002;11.854;2022-09-09T05:38:47;11.60;;;7.97;;
46729;SDS011;32476;50.002;11.854;2022-09-09T05:41:16;10.00;;;6.77;;
46729;SDS011;32476;50.002;11.854;2022-09-09T05:43:43;20.40;;;7.43;;
46729;SDS011;32476;50.002;11.854;2022-09-09T05:46:11;5.27;;;2.97;;
46729;SDS011;32476;50.002;11.854;2022-09-09T05:48:45;6.60;;;1.90;;
46729;SDS011;32476;50.002;11.854;2022-09-09T05:51:13;33.70;;;3.60;;
46729;SDS011;32476;50.002;11.854;2022-09-09T05:53:42;6.83;;;3.20;;
46729;SDS011;32476;50.002;11.854;2022-09-09T05:56:12;4.17;;;2.40;;
46729;SDS011;32476;50.002;11.854;2022-09-09T05:58:47;4.17;;;2.47;;
46729;SDS011;32476;50.002;11.854;2022-09-09T06:01:17;5.10;;;2.40;;
46729;SDS011;32476;50.002;11.854;2022-09-09T06:03:45;10.47;;;2.30;;
46729;SDS011;32476;50.002;11.854;2022-09-09T06:06:17;6.40;;;2.33;;
46729;SDS011;32476;50.002;11.854;2022-09-09T06:08:47;6.40;;;2.47;;
46729;SDS011;32476;50.002;11.854;2022-09-09T06:11:26;6.43;;;2.40;;
46729;SDS011;32476;50.002;11.854;2022-09-09T06:13:59;17.00;;;2.67;;
46729;SDS011;32476;50.002;11.854;2022-09-09T06:16:26;5.73;;;2.70;;
46729;SDS011;32476;50.002;11.854;2022-09-09T06:18:54;8.60;;;3.47;;
46729;SDS011;32476;50.002;11.854;2022-09-09T06:21:26;7.57;;;3.53;;
46729;SDS011;32476;50.002;11.854;2022-09-09T06:23:57;6.00;;;3.10;;
46729;SDS011;32476;50.002;11.854;2022-09-09T06:26:27;10.00;;;3.20;;
46729;SDS011;32476;50.002;11.854;2022-09-09T06:28:59;9.13;;;2.80;;
46729;SDS011;32476;50.002;11.854;2022-09-09T06:31:31;5.63;;;2.40;;
46729;SDS011;32476;50.002;11.854;2022-09-09T06:34:03;5.03;;;3.50;;
46729;SDS011;32476;50.002;11.854;2022-09-09T06:36:34;6.37;;;3.53;;
46729;SDS011;32476;50.002;11.854;2022-09-09T06:39:02;5.60;;;4.30;;
46729;SDS011;32476;50.002;11.854;2022-09-09T06:41:29;5.47;;;4.47;;
46729;SDS011;32476;50.002;11.854;2022-09-09T06:43:58;9.00;;;6.37;;
46729;SDS011;32476;50.002;11.854;2022-09-09T06:46:28;9.07;;;7.00;;
46729;SDS011;32476;50.002;11.854;2022-09-09T06:48:59;9.30;;;6.87;;
46729;SDS011;32476;50.002;11.854;2022-09-09T06:51:26;8.87;;;5.23;;
46729;SDS011;32476;50.002;11.854;2022-09-09T06:54:00;9.40;;;6.17;;
46729;SDS011;32476;50.002;11.854;2022-09-09T06:56:35;7.27;;;5.53;;
46729;SDS011;32476;50.002;11.854;2022-09-09T06:59:07;9.83;;;5.00;;
46729;SDS011;32476;50.002;11.854;2022-09-09T07:01:38;7.53;;;5.43;;
46729;SDS011;32476;50.002;11.854;2022-09-09T07:04:07;6.50;;;4.90;;
46729;SDS011;32476;50.002;11.854;2022-09-09T07:06:45;9.53;;;5.33;;
46729;SDS011;32476;50.002;11.854;2022-09-09T07:09:13;10.87;;;6.10;;
46729;SDS011;32476;50.002;11.854;2022-09-09T07:11:45;9.47;;;5.07;;
46729;SDS011;32476;50.002;11.854;2022-09-09T07:14:20;4.90;;;4.40;;
46729;SDS011;32476;50.002;11.854;2022-09-09T07:16:46;5.73;;;4.80;;
46729;SDS011;32476;50.002;11.854;2022-09-09T07:19:12;6.00;;;4.67;;
46729;SDS011;32476;50.002;11.854;2022-09-09T07:21:41;7.53;;;4.70;;
46729;SDS011;32476;50.002;11.854;2022-09-09T07:24:08;8.77;;;4.77;;
46729;SDS011;32476;50.002;11.854;2022-09-09T07:26:36;5.07;;;3.63;;
46729;SDS011;32476;50.002;11.854;2022-09-09T07:29:07;4.67;;;3.43;;
46729;SDS011;32476;50.002;11.854;2022-09-09T07:31:35;4.33;;;3.40;;
46729;SDS011;32476;50.002;11.854;2022-09-09T07:34:03;4.93;;;3.60;;
46729;SDS011;32476;50.002;11.854;2022-09-09T07:36:36;3.97;;;3.57;;
46729;SDS011;32476;50.002;11.854;2022-09-09T07:39:05;5.90;;;3.60;;
46729;SDS011;32476;50.002;11.854;2022-09-09T07:41:41;10.60;;;4.13;;
46729;SDS011;32476;50.002;11.854;2022-09-09T07:44:14;9.20;;;3.83;;
46729;SDS011;32476;50.002;11.854;2022-09-09T07:46:44;7.50;;;5.07;;
46729;SDS011;32476;50.002;11.854;2022-09-09T07:49:10;7.43;;;5.60;;
46729;SDS011;32476;50.002;11.854;2022-09-09T07:51:38;9.73;;;5.90;;
46729;SDS011;32476;50.002;11.854;2022-09-09T07:54:09;9.53;;;6.17;;
46729;SDS011;32476;50.002;11.854;2022-09-09T07:56:37;9.80;;;6.60;;
46729;SDS011;32476;50.002;11.854;2022-09-09T07:59:04;8.87;;;6.67;;
46729;SDS011;32476;50.002;11.854;2022-09-09T08:01:40;8.83;;;6.87;;
46729;SDS011;32476;50.002;11.854;2022-09-09T08:04:15;10.83;;;6.50;;
46729;SDS011;32476;50.002;11.854;2022-09-09T08:06:45;9.77;;;6.63;;
46729;SDS011;32476;50.002;11.854;2022-09-09T08:09:14;10.03;;;6.20;;
46729;SDS011;32476;50.002;11.854;2022-09-09T08:11:40;10.70;;;6.93;;
46729;SDS011;32476;50.002;11.854;2022-09-09T08:14:09;9.27;;;7.00;;
46729;SDS011;32476;50.002;11.854;2022-09-09T08:16:37;10.30;;;6.83;;
46729;SDS011;32476;50.002;11.854;2022-09-09T08:19:07;13.20;;;6.97;;
46729;SDS011;32476;50.002;11.854;2022-09-09T08:21:36;9.83;;;7.57;;
46729;SDS011;32476;50.002;11.854;2022-09-09T08:24:05;13.10;;;7.30;;
46729;SDS011;32476;50.002;11.854;2022-09-09T08:26:35;11.37;;;7.03;;
46729;SDS011;32476;50.002;11.854;2022-09-09T08:29:05;11.80;;;6.83;;
46729;SDS011;32476;50.002;11.854;2022-09-09T08:31:36;7.47;;;5.73;;
46729;SDS011;32476;50.002;11.854;2022-09-09T08:34:05;7.03;;;5.67;;
46729;SDS011;32476;50.002;11.854;2022-09-09T08:36:33;8.00;;;5.50;;
46729;SDS011;32476;50.002;11.854;2022-09-09T08:39:07;7.80;;;5.20;;
46729;SDS011;32476;50.002;11.854;2022-09-09T08:41:40;10.10;;;6.43;;
46729;SDS011;32476;50.002;11.854;2022-09-09T08:44:37;8.57;;;5.00;;
46729;SDS011;32476;50.002;11.854;2022-09-09T08:50:18;6.57;;;3.70;;
46729;SDS011;32476;50.002;11.854;2022-09-09T08:53:02;9.82;;;3.75;;
46729;SDS011;32476;50.002;11.854;2022-09-09T08:58:20;8.07;;;2.80;;
46729;SDS011;32476;50.002;11.854;2022-09-09T09:10:00;4.03;;;0.85;;
46729;SDS011;32476;50.002;11.854;2022-09-09T09:12:48;3.45;;;1.15;;
46729;SDS011;32476;50.002;11.854;2022-09-09T09:15:25;1.85;;;0.80;;
46729;SDS011;32476;50.002;11.854;2022-09-09T09:17:57;4.28;;;1.33;;
46729;SDS011;32476;50.002;11.854;2022-09-09T09:20:29;4.18;;;1.10;;
46729;SDS011;32476;50.002;11.854;2022-09-09T09:23:24;1.65;;;0.90;;
46729;SDS011;32476;50.002;11.854;2022-09-09T09:25:59;4.90;;;1.20;;
46729;SDS011;32476;50.002;11.854;2022-09-09T09:28:29;7.32;;;1.10;;
46729;SDS011;32476;50.002;11.854;2022-09-09T09:30:59;3.60;;;1.27;;
46729;SDS011;32476;50.002;11.854;2022-09-09T09:33:38;5.28;;;1.77;;
46729;SDS011;32476;50.002;11.854;2022-09-09T09:36:16;8.73;;;1.80;;
46729;SDS011;32476;50.002;11.854;2022-09-09T09:38:59;3.75;;;1.63;;
46729;SDS011;32476;50.002;11.854;2022-09-09T09:41:38;6.35;;;1.70;;
46729;SDS011;32476;50.002;11.854;2022-09-09T09:47:06;7.82;;;2.78;;
46729;SDS011;32476;50.002;11.854;2022-09-09T09:52:28;6.75;;;1.85;;
46729;SDS011;32476;50.002;11.854;2022-09-09T09:54:58;2.88;;;1.73;;
46729;SDS011;32476;50.002;11.854;2022-09-09T09:57:28;5.80;;;2.13;;
46729;SDS011;32476;50.002;11.854;2022-09-09T10:00:31;6.05;;;1.48;;
46729;SDS011;32476;50.002;11.854;2022-09-09T10:02:54;3.80;;;1.80;;
46729;SDS011;32476;50.002;11.854;2022-09-09T10:05:30;3.75;;;1.70;;
46729;SDS011;32476;50.002;11.854;2022-09-09T10:08:11;3.40;;;1.90;;
46729;SDS011;32476;50.002;11.854;2022-09-09T10:19:32;3.63;;;1.52;;
46729;SDS011;32476;50.002;11.854;2022-09-09T10:22:12;3.35;;;1.70;;
46729;SDS011;32476;50.002;11.854;2022-09-09T10:31:13;7.30;;;1.95;;
46729;SDS011;32476;50.002;11.854;2022-09-09T10:34:14;9.18;;;1.75;;
46729;SDS011;32476;50.002;11.854;2022-09-09T10:36:57;3.50;;;1.52;;
46729;SDS011;32476;50.002;11.854;2022-09-09T10:39:32;7.25;;;1.80;;
46729;SDS011;32476;50.002;11.854;2022-09-09T10:42:06;6.68;;;2.35;;
46729;SDS011;32476;50.002;11.854;2022-09-09T10:44:56;2.97;;;2.35;;
46729;SDS011;32476;50.002;11.854;2022-09-09T10:47:38;4.95;;;2.72;;
46729;SDS011;32476;50.002;11.854;2022-09-09T10:56:27;6.30;;;2.80;;
46729;SDS011;32476;50.002;11.854;2022-09-09T10:59:02;8.10;;;2.85;;
46729;SDS011;32476;50.002;11.854;2022-09-09T11:01:52;5.90;;;3.03;;
46729;SDS011;32476;50.002;11.854;2022-09-09T11:04:28;6.07;;;2.58;;
46729;SDS011;32476;50.002;11.854;2022-09-09T11:07:08;5.25;;;1.85;;
46729;SDS011;32476;50.002;11.854;2022-09-09T11:09:42;3.75;;;1.83;;
46729;SDS011;32476;50.002;11.854;2022-09-09T11:12:22;5.57;;;1.70;;
46729;SDS011;32476;50.002;11.854;2022-09-09T11:14:59;4.65;;;1.60;;
46729;SDS011;32476;50.002;11.854;2022-09-09T11:17:36;3.55;;;2.05;;
46729;SDS011;32476;50.002;11.854;2022-09-09T11:20:12;4.82;;;2.10;;
46729;SDS011;32476;50.002;11.854;2022-09-09T11:22:48;6.10;;;2.05;;
46729;SDS011;32476;50.002;11.854;2022-09-09T11:28:19;4.72;;;2.33;;
46729;SDS011;32476;50.002;11.854;2022-09-09T11:34:01;6.50;;;2.55;;
46729;SDS011;32476;50.002;11.854;2022-09-09T11:43:09;6.45;;;2.13;;
46729;SDS011;32476;50.002;11.854;2022-09-09T11:45:41;2.45;;;1.65;;
46729;SDS011;32476;50.002;11.854;2022-09-09T11:48:28;5.93;;;2.30;;
46729;SDS011;32476;50.002;11.854;2022-09-09T11:51:07;4.65;;;1.75;;
46729;SDS011;32476;50.002;11.854;2022-09-09T11:53:50;6.80;;;1.10;;
46729;SDS011;32476;50.002;11.854;2022-09-09T11:58:56;6.57;;;1.25;;
46729;SDS011;32476;50.002;11.854;2022-09-09T12:01:34;6.43;;;1.40;;
46729;SDS011;32476;50.002;11.854;2022-09-09T12:04:11;5.43;;;1.35;;
46729;SDS011;32476;50.002;11.854;2022-09-09T12:11:09;2.50;;;0.70;;
46729;SDS011;32476;50.002;11.854;2022-09-09T12:13:37;4.57;;;1.00;;
46729;SDS011;32476;50.002;11.854;2022-09-09T12:16:03;5.43;;;1.00;;
46729;SDS011;32476;50.002;11.854;2022-09-09T12:18:39;6.73;;;1.00;;
46729;SDS011;32476;50.002;11.854;2022-09-09T12:21:26;3.83;;;1.03;;
46729;SDS011;32476;50.002;11.854;2022-09-09T12:24:11;4.20;;;0.67;;
46729;SDS011;32476;50.002;11.854;2022-09-09T12:26:47;5.57;;;1.00;;
46729;SDS011;32476;50.002;11.854;2022-09-09T12:32:12;1.42;;;0.60;;
46729;SDS011;32476;50.002;11.854;2022-09-09T12:42:52;8.02;;;0.82;;
46729;SDS011;32476;50.002;11.854;2022-09-09T12:45:21;3.70;;;0.80;;
46729;SDS011;32476;50.002;11.854;2022-09-09T12:48:01;5.47;;;0.80;;
46729;SDS011;32476;50.002;11.854;2022-09-09T12:50:33;2.92;;;1.13;;
46729;SDS011;32476;50.002;11.854;2022-09-09T12:53:15;3.33;;;0.83;;
46729;SDS011;32476;50.002;11.854;2022-09-09T12:56:00;6.27;;;1.17;;
46729;SDS011;32476;50.002;11.854;2022-09-09T12:58:37;2.47;;;1.47;;
46729;SDS011;32476;50.002;11.854;2022-09-09T13:01:05;0.97;;;0.70;;
46729;SDS011;32476;50.002;11.854;2022-09-09T13:03:45;5.87;;;0.97;;
46729;SDS011;32476;50.002;11.854;2022-09-09T13:06:13;3.77;;;0.77;;
46729;SDS011;32476;50.002;11.854;2022-09-09T13:08:51;7.77;;;1.23;;
46729;SDS011;32476;50.002;11.854;2022-09-09T13:11:41;3.90;;;0.90;;
46729;SDS011;32476;50.002;11.854;2022-09-09T13:14:14;6.30;;;0.70;;
46729;SDS011;32476;50.002;11.854;2022-09-09T13:16:54;2.72;;;0.75;;
46729;SDS011;32476;50.002;11.854;2022-09-09T13:19:28;1.83;;;0.77;;
46729;SDS011;32476;50.002;11.854;2022-09-09T13:22:11;3.58;;;0.70;;
46729;SDS011;32476;50.002;11.854;2022-09-09T13:24:57;5.50;;;0.93;;
46729;SDS011;32476;50.002;11.854;2022-09-09T13:27:34;1.02;;;0.70;;
46729;SDS011;32476;50.002;11.854;2022-09-09T13:33:18;2.88;;;0.80;;
46729;SDS011;32476;50.002;11.854;2022-09-09T13:35:56;4.55;;;1.05;;
46729;SDS011;32476;50.002;11.854;2022-09-09T13:38:55;3.95;;;0.82;;
46729;SDS011;32476;50.002;11.854;2022-09-09T13:41:31;2.80;;;0.93;;
46729;SDS011;32476;50.002;11.854;2022-09-09T13:44:01;6.40;;;0.95;;
46729;SDS011;32476;50.002;11.854;2022-09-09T13:46:34;5.05;;;1.42;;
46729;SDS011;32476;50.002;11.854;2022-09-09T13:51:43;3.83;;;1.13;;
46729;SDS011;32476;50.002;11.854;2022-09-09T13:54:13;9.10;;;1.05;;
46729;SDS011;32476;50.002;11.854;2022-09-09T13:56:43;8.32;;;1.10;;
46729;SDS011;32476;50.002;11.854;2022-09-09T13:59:11;5.32;;;1.10;;
46729;SDS011;32476;50.002;11.854;2022-09-09T14:01:43;3.58;;;1.00;;
46729;SDS011;32476;50.002;11.854;2022-09-09T14:04:09;5.65;;;1.77;;
46729;SDS011;32476;50.002;11.854;2022-09-09T14:06:35;4.95;;;1.20;;
46729;SDS011;32476;50.002;11.854;2022-09-09T14:09:05;13.35;;;1.63;;
46729;SDS011;32476;50.002;11.854;2022-09-09T14:11:32;10.52;;;1.55;;
46729;SDS011;32476;50.002;11.854;2022-09-09T14:13:58;5.60;;;1.38;;
46729;SDS011;32476;50.002;11.854;2022-09-09T14:16:27;4.60;;;1.48;;
46729;SDS011;32476;50.002;11.854;2022-09-09T14:18:53;2.80;;;1.00;;
46729;SDS011;32476;50.002;11.854;2022-09-09T14:21:22;2.83;;;1.10;;
46729;SDS011;32476;50.002;11.854;2022-09-09T14:23:50;4.50;;;1.63;;
46729;SDS011;32476;50.002;11.854;2022-09-09T14:26:18;5.57;;;1.10;;
46729;SDS011;32476;50.002;11.854;2022-09-09T14:28:50;4.43;;;1.17;;
46729;SDS011;32476;50.002;11.854;2022-09-09T14:31:17;6.07;;;1.13;;
46729;SDS011;32476;50.002;11.854;2022-09-09T14:33:43;3.07;;;1.30;;
46729;SDS011;32476;50.002;11.854;2022-09-09T14:36:11;4.77;;;1.20;;
46729;SDS011;32476;50.002;11.854;2022-09-09T14:38:38;2.43;;;1.20;;
46729;SDS011;32476;50.002;11.854;2022-09-09T14:41:11;3.53;;;1.33;;
46729;SDS011;32476;50.002;11.854;2022-09-09T14:43:44;7.37;;;1.50;;
46729;SDS011;32476;50.002;11.854;2022-09-09T14:46:12;6.17;;;1.30;;
46729;SDS011;32476;50.002;11.854;2022-09-09T14:48:41;1.40;;;0.90;;
46729;SDS011;32476;50.002;11.854;2022-09-09T14:51:11;4.20;;;0.90;;
46729;SDS011;32476;50.002;11.854;2022-09-09T14:53:50;2.77;;;0.80;;
46729;SDS011;32476;50.002;11.854;2022-09-09T14:56:20;2.23;;;0.60;;
46729;SDS011;32476;50.002;11.854;2022-09-09T14:58:49;1.63;;;0.90;;
46729;SDS011;32476;50.002;11.854;2022-09-09T15:01:17;1.93;;;0.70;;
46729;SDS011;32476;50.002;11.854;2022-09-09T15:03:50;2.53;;;0.70;;
46729;SDS011;32476;50.002;11.854;2022-09-09T15:06:19;1.40;;;0.80;;
46729;SDS011;32476;50.002;11.854;2022-09-09T15:08:49;5.37;;;0.97;;
46729;SDS011;32476;50.002;11.854;2022-09-09T15:11:17;2.87;;;1.17;;
46729;SDS011;32476;50.002;11.854;2022-09-09T15:13:45;3.30;;;0.80;;
46729;SDS011;32476;50.002;11.854;2022-09-09T15:16:14;1.60;;;0.90;;
46729;SDS011;32476;50.002;11.854;2022-09-09T15:18:43;1.57;;;1.07;;
46729;SDS011;32476;50.002;11.854;2022-09-09T15:21:10;5.53;;;1.10;;
46729;SDS011;32476;50.002;11.854;2022-09-09T15:23:45;3.83;;;0.80;;
46729;SDS011;32476;50.002;11.854;2022-09-09T15:26:12;4.65;;;1.00;;
46729;SDS011;32476;50.002;11.854;2022-09-09T15:28:42;4.80;;;0.93;;
46729;SDS011;32476;50.002;11.854;2022-09-09T15:31:19;3.05;;;0.70;;
46729;SDS011;32476;50.002;11.854;2022-09-09T15:33:54;2.65;;;0.90;;
46729;SDS011;32476;50.002;11.854;2022-09-09T15:36:31;1.67;;;0.88;;
46729;SDS011;32476;50.002;11.854;2022-09-09T15:39:04;1.92;;;0.90;;
46729;SDS011;32476;50.002;11.854;2022-09-09T15:41:34;0.88;;;0.60;;
46729;SDS011;32476;50.002;11.854;2022-09-09T15:44:01;3.13;;;0.88;;
46729;SDS011;32476;50.002;11.854;2022-09-09T15:49:09;2.10;;;0.68;;
46729;SDS011;32476;50.002;11.854;2022-09-09T15:51:41;3.03;;;1.02;;
46729;SDS011;32476;50.002;11.854;2022-09-09T15:54:16;3.28;;;1.02;;
46729;SDS011;32476;50.002;11.854;2022-09-09T15:56:44;1.65;;;0.82;;
46729;SDS011;32476;50.002;11.854;2022-09-09T15:59:15;1.10;;;0.70;;
46729;SDS011;32476;50.002;11.854;2022-09-09T16:01:41;2.67;;;0.98;;
46729;SDS011;32476;50.002;11.854;2022-09-09T16:04:08;1.88;;;0.80;;
46729;SDS011;32476;50.002;11.854;2022-09-09T16:06:35;1.83;;;0.80;;
46729;SDS011;32476;50.002;11.854;2022-09-09T16:09:03;3.15;;;0.95;;
46729;SDS011;32476;50.002;11.854;2022-09-09T16:11:32;3.75;;;1.20;;
46729;SDS011;32476;50.002;11.854;2022-09-09T16:14:02;1.85;;;1.00;;
46729;SDS011;32476;50.002;11.854;2022-09-09T16:16:30;3.97;;;1.38;;
46729;SDS011;32476;50.002;11.854;2022-09-09T16:18:58;3.35;;;1.00;;
46729;SDS011;32476;50.002;11.854;2022-09-09T16:21:28;2.60;;;1.10;;
46729;SDS011;32476;50.002;11.854;2022-09-09T16:24:16;4.10;;;1.33;;
46729;SDS011;32476;50.002;11.854;2022-09-09T16:26:51;4.07;;;1.30;;
46729;SDS011;32476;50.002;11.854;2022-09-09T16:29:19;3.78;;;1.30;;
46729;SDS011;32476;50.002;11.854;2022-09-09T16:31:49;4.93;;;1.17;;
46729;SDS011;32476;50.002;11.854;2022-09-09T16:34:15;3.88;;;1.15;;
46729;SDS011;32476;50.002;11.854;2022-09-09T16:36:42;4.63;;;1.58;;
46729;SDS011;32476;50.002;11.854;2022-09-09T16:39:12;3.42;;;1.25;;
46729;SDS011;32476;50.002;11.854;2022-09-09T16:41:41;5.30;;;1.52;;
46729;SDS011;32476;50.002;11.854;2022-09-09T16:44:11;6.90;;;2.28;;
46729;SDS011;32476;50.002;11.854;2022-09-09T16:46:39;6.22;;;1.50;;
46729;SDS011;32476;50.002;11.854;2022-09-09T16:49:09;12.75;;;1.88;;
46729;SDS011;32476;50.002;11.854;2022-09-09T16:51:40;6.78;;;1.60;;
46729;SDS011;32476;50.002;11.854;2022-09-09T16:54:09;4.10;;;1.60;;
46729;SDS011;32476;50.002;11.854;2022-09-09T16:56:37;5.20;;;1.33;;
46729;SDS011;32476;50.002;11.854;2022-09-09T16:59:13;3.58;;;1.38;;
46729;SDS011;32476;50.002;11.854;2022-09-09T17:01:45;7.53;;;1.92;;
46729;SDS011;32476;50.002;11.854;2022-09-09T17:04:20;3.78;;;1.10;;
46729;SDS011;32476;50.002;11.854;2022-09-09T17:06:49;7.18;;;1.30;;
46729;SDS011;32476;50.002;11.854;2022-09-09T17:09:19;4.78;;;1.35;;